JST714 YMHB-YMML
Flight info
| Callsign | JST714 |
|---|---|
| Flight time | 0h 58m |
| Altitude | 38000 |
| Route | LATUM H111 LT H215 RAZZI |
| Aircraft | A320/M-SDE3FGHIRWY/LB1 |
Departure
| Time | 2026-05-05 12:26 |
|---|---|
| Airport | Hobart International Airport (YMHB) |
Arrival
| Time | 2026-05-05 13:24 |
|---|---|
| Airport | Melbourne Airport (YMML) |
| Time | Latitude | Longitude | Altitude | Speed | Heading |
|---|---|---|---|---|---|
| 2026-05-05 11:50 | -42.83684 | 147.50623 | 22 ft | 0 kts | 225° |
| 2026-05-05 12:15 | -42.83669 | 147.50642 | 22 ft | 4 kts | 215° |
| 2026-05-05 12:15 | -42.83646 | 147.50658 | 22 ft | 4 kts | 186° |
| 2026-05-05 12:15 | -42.83625 | 147.50652 | 23 ft | 2 kts | 136° |
| 2026-05-05 12:16 | -42.83621 | 147.50646 | 22 ft | 0 kts | 135° |
| 2026-05-05 12:20 | -42.83626 | 147.50654 | 22 ft | 2 kts | 135° |
| 2026-05-05 12:20 | -42.83643 | 147.50676 | 22 ft | 5 kts | 135° |
| 2026-05-05 12:20 | -42.83671 | 147.50714 | 23 ft | 7 kts | 135° |
| 2026-05-05 12:20 | -42.83711 | 147.50768 | 22 ft | 9 kts | 135° |
| 2026-05-05 12:21 | -42.83771 | 147.50821 | 22 ft | 11 kts | 153° |
| 2026-05-05 12:21 | -42.83846 | 147.50880 | 22 ft | 14 kts | 136° |
| 2026-05-05 12:21 | -42.83918 | 147.50980 | 22 ft | 16 kts | 135° |
| 2026-05-05 12:21 | -42.83952 | 147.51059 | 22 ft | 10 kts | 85° |
| 2026-05-05 12:22 | -42.83905 | 147.51139 | 23 ft | 12 kts | 45° |
| 2026-05-05 12:22 | -42.83838 | 147.51229 | 22 ft | 15 kts | 45° |
| 2026-05-05 12:22 | -42.83765 | 147.51327 | 23 ft | 9 kts | 50° |
| 2026-05-05 12:22 | -42.83775 | 147.51400 | 23 ft | 11 kts | 136° |
| 2026-05-05 12:23 | -42.83862 | 147.51511 | 22 ft | 20 kts | 136° |
| 2026-05-05 12:23 | -42.83964 | 147.51652 | 22 ft | 22 kts | 135° |
| 2026-05-05 12:23 | -42.84081 | 147.51810 | 22 ft | 25 kts | 135° |
| 2026-05-05 12:23 | -42.84209 | 147.51985 | 25 ft | 27 kts | 135° |
| 2026-05-05 12:24 | -42.84349 | 147.52175 | 23 ft | 29 kts | 135° |
| 2026-05-05 12:24 | -42.84464 | 147.52299 | 22 ft | 18 kts | 169° |
| 2026-05-05 12:24 | -42.84555 | 147.52357 | 25 ft | 14 kts | 135° |
| 2026-05-05 12:24 | -42.84556 | 147.52439 | 23 ft | 11 kts | 20° |
| 2026-05-05 12:25 | -42.84510 | 147.52396 | 24 ft | 0 kts | 312° |
| 2026-05-05 12:25 | -42.84407 | 147.52255 | 24 ft | 56 kts | 316° |
| 2026-05-05 12:26 | -42.83973 | 147.51668 | 24 ft | 117 kts | 315° |
| 2026-05-05 12:26 | -42.83277 | 147.50741 | 100 ft | 155 kts | 317° |
| 2026-05-05 12:26 | -42.82523 | 147.49725 | 752 ft | 151 kts | 316° |
| 2026-05-05 12:26 | -42.81779 | 147.48715 | 1370 ft | 151 kts | 316° |
| 2026-05-05 12:27 | -42.81030 | 147.47705 | 1939 ft | 151 kts | 316° |
| 2026-05-05 12:27 | -42.80290 | 147.46695 | 2521 ft | 151 kts | 315° |
| 2026-05-05 12:27 | -42.79516 | 147.45633 | 2888 ft | 168 kts | 314° |
| 2026-05-05 12:27 | -42.78642 | 147.44430 | 3190 ft | 189 kts | 313° |
| 2026-05-05 12:28 | -42.77665 | 147.43075 | 3511 ft | 213 kts | 313° |
| 2026-05-05 12:28 | -42.76566 | 147.41556 | 3926 ft | 237 kts | 313° |
| 2026-05-05 12:28 | -42.75365 | 147.39904 | 4590 ft | 251 kts | 313° |
| 2026-05-05 12:28 | -42.74138 | 147.38227 | 5527 ft | 254 kts | 313° |
| 2026-05-05 12:29 | -42.72887 | 147.36516 | 6516 ft | 256 kts | 313° |
| 2026-05-05 12:29 | -42.71626 | 147.34795 | 7443 ft | 258 kts | 313° |
| 2026-05-05 12:29 | -42.70348 | 147.33049 | 8340 ft | 262 kts | 313° |
| 2026-05-05 12:29 | -42.69054 | 147.31280 | 9177 ft | 266 kts | 313° |
| 2026-05-05 12:30 | -42.67742 | 147.29488 | 9987 ft | 269 kts | 312° |
| 2026-05-05 12:30 | -42.66381 | 147.27628 | 10466 ft | 288 kts | 312° |
| 2026-05-05 12:30 | -42.64917 | 147.25629 | 10791 ft | 307 kts | 312° |
| 2026-05-05 12:30 | -42.63391 | 147.23548 | 11432 ft | 313 kts | 312° |
| 2026-05-05 12:31 | -42.61846 | 147.21441 | 12181 ft | 316 kts | 312° |
| 2026-05-05 12:31 | -42.60103 | 147.19579 | 12922 ft | 325 kts | 327° |
| 2026-05-05 12:31 | -42.57954 | 147.18601 | 13587 ft | 337 kts | 347° |
| 2026-05-05 12:31 | -42.55565 | 147.18739 | 14198 ft | 354 kts | 8° |
| 2026-05-05 12:32 | -42.53275 | 147.20134 | 14806 ft | 370 kts | 28° |
| 2026-05-05 12:32 | -42.51122 | 147.22083 | 15434 ft | 374 kts | 29° |
| 2026-05-05 12:32 | -42.48955 | 147.24082 | 16045 ft | 378 kts | 29° |
| 2026-05-05 12:32 | -42.46781 | 147.26116 | 16639 ft | 382 kts | 30° |
| 2026-05-05 12:33 | -42.44591 | 147.28201 | 17221 ft | 386 kts | 30° |
| 2026-05-05 12:33 | -42.42387 | 147.30307 | 17806 ft | 390 kts | 30° |
| 2026-05-05 12:33 | -42.40185 | 147.32404 | 18371 ft | 393 kts | 30° |
| 2026-05-05 12:33 | -42.37926 | 147.34546 | 18933 ft | 397 kts | 30° |
| 2026-05-05 12:34 | -42.35578 | 147.36528 | 19457 ft | 397 kts | 21° |
| 2026-05-05 12:34 | -42.33027 | 147.37901 | 19981 ft | 394 kts | 10° |
| 2026-05-05 12:34 | -42.30345 | 147.38618 | 20489 ft | 391 kts | 360° |
| 2026-05-05 12:34 | -42.27637 | 147.38681 | 20976 ft | 388 kts | 349° |
| 2026-05-05 12:35 | -42.24977 | 147.38146 | 21430 ft | 387 kts | 343° |
| 2026-05-05 12:35 | -42.22342 | 147.37496 | 21890 ft | 391 kts | 343° |
| 2026-05-05 12:35 | -42.19650 | 147.36842 | 22349 ft | 394 kts | 343° |
| 2026-05-05 12:35 | -42.16929 | 147.36187 | 22790 ft | 398 kts | 343° |
| 2026-05-05 12:36 | -42.14188 | 147.35530 | 23230 ft | 402 kts | 343° |
| 2026-05-05 12:36 | -42.11429 | 147.34868 | 23646 ft | 405 kts | 343° |
| 2026-05-05 12:36 | -42.08640 | 147.34200 | 24066 ft | 409 kts | 343° |
| 2026-05-05 12:36 | -42.05821 | 147.33527 | 24486 ft | 412 kts | 343° |
| 2026-05-05 12:37 | -42.02995 | 147.32851 | 24904 ft | 415 kts | 343° |
| 2026-05-05 12:37 | -42.00138 | 147.32169 | 25338 ft | 417 kts | 343° |
| 2026-05-05 12:37 | -41.97273 | 147.31488 | 25768 ft | 419 kts | 343° |
| 2026-05-05 12:37 | -41.94389 | 147.30800 | 26140 ft | 423 kts | 344° |
| 2026-05-05 12:38 | -41.91483 | 147.30105 | 26529 ft | 425 kts | 344° |
| 2026-05-05 12:38 | -41.89555 | 147.29644 | 26791 ft | 427 kts | 344° |
| 2026-05-05 12:38 | -41.85666 | 147.28718 | 27299 ft | 430 kts | 344° |
| 2026-05-05 12:38 | -41.82709 | 147.28018 | 27682 ft | 431 kts | 344° |
| 2026-05-05 12:39 | -41.79751 | 147.27318 | 28052 ft | 434 kts | 344° |
| 2026-05-05 12:39 | -41.76772 | 147.26614 | 28439 ft | 436 kts | 344° |
| 2026-05-05 12:39 | -41.73782 | 147.25905 | 28822 ft | 437 kts | 344° |
| 2026-05-05 12:39 | -41.71752 | 147.25424 | 29083 ft | 439 kts | 344° |
| 2026-05-05 12:40 | -41.68739 | 147.24711 | 29451 ft | 441 kts | 344° |
| 2026-05-05 12:40 | -41.65711 | 147.23995 | 29810 ft | 443 kts | 344° |
| 2026-05-05 12:40 | -41.62707 | 147.23282 | 30166 ft | 444 kts | 344° |
| 2026-05-05 12:40 | -41.59655 | 147.22561 | 30500 ft | 446 kts | 344° |
| 2026-05-05 12:41 | -41.56591 | 147.21836 | 30843 ft | 448 kts | 344° |
| 2026-05-05 12:41 | -41.53584 | 147.20825 | 31172 ft | 444 kts | 336° |
| 2026-05-05 12:41 | -41.50708 | 147.19333 | 31555 ft | 440 kts | 332° |
| 2026-05-05 12:41 | -41.47878 | 147.17788 | 32041 ft | 438 kts | 332° |
| 2026-05-05 12:42 | -41.45064 | 147.16257 | 32519 ft | 437 kts | 332° |
| 2026-05-05 12:42 | -41.42243 | 147.14727 | 32972 ft | 435 kts | 332° |
| 2026-05-05 12:42 | -41.39445 | 147.13212 | 33443 ft | 433 kts | 332° |
| 2026-05-05 12:42 | -41.36658 | 147.11703 | 33906 ft | 431 kts | 332° |
| 2026-05-05 12:43 | -41.33911 | 147.10214 | 34360 ft | 430 kts | 332° |
| 2026-05-05 12:43 | -41.31140 | 147.08717 | 34806 ft | 428 kts | 332° |
| 2026-05-05 12:43 | -41.28386 | 147.07230 | 35214 ft | 427 kts | 332° |
| 2026-05-05 12:43 | -41.25640 | 147.05746 | 35599 ft | 425 kts | 332° |
| 2026-05-05 12:44 | -41.22902 | 147.04264 | 35966 ft | 425 kts | 333° |
| 2026-05-05 12:44 | -41.20165 | 147.02785 | 36088 ft | 424 kts | 333° |
| 2026-05-05 12:44 | -41.14712 | 146.99854 | 36111 ft | 422 kts | 333° |
| 2026-05-05 12:45 | -41.09254 | 146.96929 | 36112 ft | 422 kts | 333° |
| 2026-05-05 12:45 | -41.03811 | 146.94015 | 36122 ft | 422 kts | 333° |
| 2026-05-05 12:46 | -40.98370 | 146.91098 | 36113 ft | 422 kts | 333° |
| 2026-05-05 12:46 | -40.92958 | 146.88203 | 36121 ft | 422 kts | 333° |
| 2026-05-05 12:47 | -40.87472 | 146.85281 | 36118 ft | 422 kts | 333° |
| 2026-05-05 12:47 | -40.82018 | 146.82388 | 36127 ft | 422 kts | 333° |
| 2026-05-05 12:48 | -40.76563 | 146.79496 | 36126 ft | 423 kts | 333° |
| 2026-05-05 12:48 | -40.71107 | 146.76593 | 36126 ft | 423 kts | 333° |
| 2026-05-05 12:49 | -40.65683 | 146.73716 | 36127 ft | 423 kts | 333° |
| 2026-05-05 12:49 | -40.60221 | 146.70823 | 36132 ft | 423 kts | 333° |
| 2026-05-05 12:50 | -40.54748 | 146.67933 | 36134 ft | 423 kts | 333° |
| 2026-05-05 12:50 | -40.49275 | 146.65057 | 36131 ft | 424 kts | 333° |
| 2026-05-05 12:51 | -40.43797 | 146.62188 | 36145 ft | 424 kts | 333° |
| 2026-05-05 12:51 | -40.38310 | 146.59315 | 36147 ft | 424 kts | 333° |
| 2026-05-05 12:52 | -40.32833 | 146.56439 | 36149 ft | 424 kts | 333° |
| 2026-05-05 12:52 | -40.27346 | 146.53570 | 36151 ft | 424 kts | 334° |
| 2026-05-05 12:53 | -40.21892 | 146.50722 | 36158 ft | 425 kts | 334° |
| 2026-05-05 12:53 | -40.16404 | 146.47863 | 36159 ft | 424 kts | 334° |
| 2026-05-05 12:54 | -40.08170 | 146.43579 | 36162 ft | 424 kts | 334° |
| 2026-05-05 12:55 | -40.02685 | 146.40737 | 36166 ft | 424 kts | 334° |
| 2026-05-05 12:55 | -39.97200 | 146.37899 | 36167 ft | 424 kts | 334° |
| 2026-05-05 12:56 | -39.91738 | 146.35083 | 36171 ft | 425 kts | 334° |
| 2026-05-05 12:56 | -39.86238 | 146.32258 | 36172 ft | 425 kts | 334° |
| 2026-05-05 12:57 | -39.80725 | 146.29432 | 36179 ft | 425 kts | 334° |
| 2026-05-05 12:57 | -39.75211 | 146.26608 | 36182 ft | 425 kts | 334° |
| 2026-05-05 12:58 | -39.69739 | 146.23808 | 36183 ft | 425 kts | 334° |
| 2026-05-05 12:58 | -39.64231 | 146.20991 | 36191 ft | 425 kts | 334° |
| 2026-05-05 12:59 | -39.58733 | 146.18190 | 36194 ft | 425 kts | 334° |
| 2026-05-05 12:59 | -39.53222 | 146.15386 | 36196 ft | 425 kts | 334° |
| 2026-05-05 13:00 | -39.44952 | 146.11194 | 36199 ft | 425 kts | 334° |
| 2026-05-05 13:01 | -39.33941 | 146.05625 | 36211 ft | 426 kts | 334° |
| 2026-05-05 13:01 | -39.28406 | 146.02820 | 36213 ft | 426 kts | 334° |
| 2026-05-05 13:02 | -39.22906 | 146.00057 | 36215 ft | 427 kts | 335° |
| 2026-05-05 13:02 | -39.17339 | 145.97260 | 36221 ft | 426 kts | 334° |
| 2026-05-05 13:03 | -39.11834 | 145.94496 | 36208 ft | 426 kts | 335° |
| 2026-05-05 13:03 | -39.09078 | 145.93114 | 35781 ft | 424 kts | 335° |
| 2026-05-05 13:03 | -39.06343 | 145.91748 | 35369 ft | 420 kts | 335° |
| 2026-05-05 13:04 | -39.03606 | 145.90378 | 34614 ft | 424 kts | 335° |
| 2026-05-05 13:04 | -39.00843 | 145.88993 | 33877 ft | 428 kts | 335° |
| 2026-05-05 13:04 | -38.98056 | 145.87599 | 33167 ft | 430 kts | 335° |
| 2026-05-05 13:04 | -38.95257 | 145.86204 | 32443 ft | 432 kts | 335° |
| 2026-05-05 13:05 | -38.92463 | 145.84810 | 31920 ft | 431 kts | 335° |
| 2026-05-05 13:05 | -38.89629 | 145.83390 | 30755 ft | 440 kts | 335° |
| 2026-05-05 13:05 | -38.86823 | 145.81984 | 29680 ft | 437 kts | 335° |
| 2026-05-05 13:05 | -38.83987 | 145.80576 | 29114 ft | 433 kts | 336° |
| 2026-05-05 13:06 | -38.81195 | 145.79192 | 28556 ft | 429 kts | 336° |
| 2026-05-05 13:06 | -38.78414 | 145.77814 | 27986 ft | 426 kts | 336° |
| 2026-05-05 13:06 | -38.75662 | 145.76454 | 27433 ft | 422 kts | 336° |
| 2026-05-05 13:06 | -38.72933 | 145.75107 | 26884 ft | 418 kts | 336° |
| 2026-05-05 13:07 | -38.70227 | 145.73769 | 26342 ft | 415 kts | 336° |
| 2026-05-05 13:07 | -38.67544 | 145.72438 | 25811 ft | 412 kts | 336° |
| 2026-05-05 13:07 | -38.64912 | 145.71131 | 25301 ft | 409 kts | 336° |
| 2026-05-05 13:07 | -38.62271 | 145.69823 | 24795 ft | 406 kts | 336° |
| 2026-05-05 13:08 | -38.59650 | 145.68523 | 24304 ft | 402 kts | 336° |
| 2026-05-05 13:08 | -38.57043 | 145.67233 | 23832 ft | 400 kts | 336° |
| 2026-05-05 13:08 | -38.54462 | 145.65959 | 23370 ft | 397 kts | 336° |
| 2026-05-05 13:08 | -38.51891 | 145.64690 | 22898 ft | 394 kts | 336° |
| 2026-05-05 13:09 | -38.49348 | 145.63439 | 22433 ft | 391 kts | 336° |
| 2026-05-05 13:09 | -38.46837 | 145.62138 | 21950 ft | 386 kts | 331° |
| 2026-05-05 13:09 | -38.44473 | 145.60532 | 21469 ft | 383 kts | 329° |
| 2026-05-05 13:09 | -38.42135 | 145.58918 | 20978 ft | 380 kts | 329° |
| 2026-05-05 13:10 | -38.39822 | 145.57318 | 20487 ft | 377 kts | 329° |
| 2026-05-05 13:10 | -38.37525 | 145.55732 | 19979 ft | 374 kts | 329° |
| 2026-05-05 13:10 | -38.35243 | 145.54159 | 19473 ft | 372 kts | 329° |
| 2026-05-05 13:10 | -38.32972 | 145.52594 | 18950 ft | 369 kts | 329° |
| 2026-05-05 13:11 | -38.30724 | 145.51047 | 18440 ft | 366 kts | 329° |
| 2026-05-05 13:11 | -38.28517 | 145.49527 | 17928 ft | 363 kts | 329° |
| 2026-05-05 13:11 | -38.26300 | 145.48002 | 17426 ft | 361 kts | 329° |
| 2026-05-05 13:11 | -38.24098 | 145.46490 | 16898 ft | 358 kts | 329° |
| 2026-05-05 13:12 | -38.21904 | 145.44991 | 16388 ft | 356 kts | 329° |
| 2026-05-05 13:12 | -38.19728 | 145.43506 | 15870 ft | 354 kts | 329° |
| 2026-05-05 13:12 | -38.17564 | 145.42026 | 15362 ft | 351 kts | 329° |
| 2026-05-05 13:12 | -38.15426 | 145.40565 | 14863 ft | 348 kts | 329° |
| 2026-05-05 13:13 | -38.13295 | 145.39111 | 14363 ft | 346 kts | 329° |
| 2026-05-05 13:13 | -38.11181 | 145.37666 | 13859 ft | 344 kts | 329° |
| 2026-05-05 13:13 | -38.09083 | 145.36232 | 13360 ft | 342 kts | 329° |
| 2026-05-05 13:13 | -38.07018 | 145.34819 | 12871 ft | 340 kts | 329° |
| 2026-05-05 13:14 | -38.04935 | 145.33395 | 12370 ft | 338 kts | 329° |
| 2026-05-05 13:14 | -38.02866 | 145.31984 | 11874 ft | 337 kts | 329° |
| 2026-05-05 13:14 | -38.00804 | 145.30577 | 11245 ft | 339 kts | 329° |
| 2026-05-05 13:14 | -37.98726 | 145.29135 | 10638 ft | 341 kts | 329° |
| 2026-05-05 13:15 | -37.96670 | 145.27690 | 10325 ft | 332 kts | 329° |
| 2026-05-05 13:15 | -37.94683 | 145.26291 | 10197 ft | 320 kts | 329° |
| 2026-05-05 13:15 | -37.92770 | 145.24947 | 10074 ft | 309 kts | 329° |
| 2026-05-05 13:15 | -37.90922 | 145.23651 | 9941 ft | 298 kts | 329° |
| 2026-05-05 13:16 | -37.89126 | 145.22397 | 9712 ft | 293 kts | 329° |
| 2026-05-05 13:16 | -37.87345 | 145.21157 | 9327 ft | 290 kts | 329° |
| 2026-05-05 13:16 | -37.85710 | 145.19719 | 8695 ft | 285 kts | 314° |
| 2026-05-05 13:16 | -37.84521 | 145.17760 | 8083 ft | 279 kts | 296° |
| 2026-05-05 13:17 | -37.83883 | 145.15506 | 7779 ft | 264 kts | 281° |
| 2026-05-05 13:17 | -37.83512 | 145.13303 | 7409 ft | 255 kts | 282° |
| 2026-05-05 13:17 | -37.83130 | 145.11111 | 7153 ft | 252 kts | 282° |
| 2026-05-05 13:17 | -37.82746 | 145.08934 | 6809 ft | 254 kts | 282° |
| 2026-05-05 13:18 | -37.82368 | 145.06781 | 6483 ft | 248 kts | 282° |
| 2026-05-05 13:18 | -37.81995 | 145.04655 | 5967 ft | 247 kts | 282° |
| 2026-05-05 13:18 | -37.81627 | 145.02538 | 5460 ft | 245 kts | 281° |
| 2026-05-05 13:18 | -37.81514 | 145.00405 | 4962 ft | 242 kts | 265° |
| 2026-05-05 13:19 | -37.81815 | 144.98328 | 4457 ft | 240 kts | 257° |
| 2026-05-05 13:19 | -37.82179 | 144.96285 | 3990 ft | 235 kts | 258° |
| 2026-05-05 13:19 | -37.82521 | 144.94326 | 3784 ft | 220 kts | 258° |
| 2026-05-05 13:19 | -37.82786 | 144.92498 | 3649 ft | 203 kts | 261° |
| 2026-05-05 13:20 | -37.82990 | 144.90812 | 3556 ft | 184 kts | 261° |
| 2026-05-05 13:20 | -37.83149 | 144.89275 | 3473 ft | 171 kts | 268° |
| 2026-05-05 13:20 | -37.82865 | 144.87859 | 3388 ft | 171 kts | 298° |
| 2026-05-05 13:20 | -37.82029 | 144.86784 | 3195 ft | 177 kts | 328° |
| 2026-05-05 13:21 | -37.80838 | 144.86371 | 2929 ft | 179 kts | 348° |
| 2026-05-05 13:21 | -37.79626 | 144.86154 | 2662 ft | 171 kts | 348° |
| 2026-05-05 13:21 | -37.78473 | 144.85942 | 2417 ft | 167 kts | 348° |
| 2026-05-05 13:21 | -37.77349 | 144.85734 | 2186 ft | 154 kts | 349° |
| 2026-05-05 13:22 | -37.76328 | 144.85546 | 1950 ft | 143 kts | 349° |
| 2026-05-05 13:22 | -37.75359 | 144.85366 | 1740 ft | 139 kts | 349° |
| 2026-05-05 13:22 | -37.74418 | 144.85191 | 1551 ft | 138 kts | 350° |
| 2026-05-05 13:22 | -37.73463 | 144.85016 | 1360 ft | 137 kts | 350° |
| 2026-05-05 13:23 | -37.72537 | 144.84846 | 1172 ft | 136 kts | 350° |
| 2026-05-05 13:23 | -37.71602 | 144.84669 | 957 ft | 135 kts | 350° |
| 2026-05-05 13:23 | -37.70672 | 144.84490 | 791 ft | 135 kts | 350° |
| 2026-05-05 13:23 | -37.69740 | 144.84311 | 631 ft | 135 kts | 350° |
| 2026-05-05 13:24 | -37.68812 | 144.84139 | 430 ft | 134 kts | 350° |
| 2026-05-05 13:24 | -37.67912 | 144.83970 | 356 ft | 114 kts | 351° |
| 2026-05-05 13:24 | -37.67399 | 144.83879 | 370 ft | 49 kts | 352° |
| 2026-05-05 13:24 | -37.67119 | 144.83825 | 383 ft | 32 kts | 354° |
| 2026-05-05 13:25 | -37.66945 | 144.83861 | 388 ft | 20 kts | 23° |
| 2026-05-05 13:25 | -37.66845 | 144.83911 | 391 ft | 13 kts | 21° |
| 2026-05-05 13:25 | -37.66757 | 144.83955 | 394 ft | 14 kts | 21° |
| 2026-05-05 13:25 | -37.66718 | 144.84058 | 395 ft | 15 kts | 87° |
| 2026-05-05 13:26 | -37.66768 | 144.84179 | 393 ft | 19 kts | 149° |
| 2026-05-05 13:26 | -37.66883 | 144.84211 | 389 ft | 18 kts | 170° |
| 2026-05-05 13:26 | -37.66991 | 144.84229 | 386 ft | 14 kts | 173° |
| 2026-05-05 13:26 | -37.67060 | 144.84240 | 385 ft | 17 kts | 173° |
| 2026-05-05 13:27 | -37.67157 | 144.84262 | 383 ft | 8 kts | 167° |
| 2026-05-05 13:27 | -37.67201 | 144.84270 | 382 ft | 11 kts | 173° |
| 2026-05-05 13:27 | -37.67293 | 144.84286 | 380 ft | 15 kts | 171° |
| 2026-05-05 13:27 | -37.67399 | 144.84305 | 378 ft | 17 kts | 171° |
| 2026-05-05 13:28 | -37.67480 | 144.84365 | 376 ft | 11 kts | 89° |
| 2026-05-05 13:28 | -37.67471 | 144.84434 | 378 ft | 12 kts | 80° |
| 2026-05-05 13:28 | -37.67455 | 144.84572 | 380 ft | 13 kts | 81° |
| 2026-05-05 13:28 | -37.67446 | 144.84645 | 381 ft | 11 kts | 81° |
| 2026-05-05 13:29 | -37.67434 | 144.84742 | 382 ft | 10 kts | 81° |
| 2026-05-05 13:29 | -37.67479 | 144.84782 | 381 ft | 7 kts | 174° |
| 2026-05-05 13:29 | -37.67513 | 144.84788 | 380 ft | 4 kts | 171° |
| 2026-05-05 13:29 | -37.67529 | 144.84791 | 379 ft | 0 kts | 171° |